Wetterdaten: Freitag, 09.01.2015
Datum Zeit Temp. A. Feuchte A. Luftdruck Regen Wind Richtung Richtung Sonnenschein ET UV Solar Taupunkt Windchill Windben Empfang
09.01.2015 00:00 6,0 C 70 % 1026,6 hPa 0,0 l/m 23,4 km/h (4 Bft) W-SW 254 0 min 0,000 mm 0,0 UV-I 0 W/m 1,0 C -3,1 C 32,0 km/h (5 Bft) 0,00 %
09.01.2015 00:15 6,4 C 68 % 1027,1 hPa 0,0 l/m 29,5 km/h (5 Bft) W-SW 256 0 min 0,000 mm 0,0 UV-I 0 W/m 0,9 C -4,3 C 40,0 km/h (6 Bft) 0,00 %
09.01.2015 00:30 6,9 C 66 % 1027,1 hPa 0,0 l/m 20,5 km/h (4 Bft) SW 236 0 min 0,000 mm 0,0 UV-I 0 W/m 1,0 C -0,9 C 32,0 km/h (5 Bft) 0,00 %
09.01.2015 00:45 7,1 C 65 % 1027,2 hPa 0,0 l/m 5,4 km/h (1 Bft) S 182 0 min 0,000 mm 0,0 UV-I 0 W/m 1,0 C 7,1 C 7,9 km/h (2 Bft) 0,00 %
09.01.2015 01:00 7,6 C 63 % 1027,5 hPa 0,0 l/m 8,3 km/h (2 Bft) W-NW 300 0 min 0,000 mm 0,0 UV-I 0 W/m 1,0 C 6,1 C 15,8 km/h (3 Bft) 0,00 %
09.01.2015 01:15 7,7 C 63 % 1028,1 hPa 0,0 l/m 16,6 km/h (3 Bft) W-SW 252 0 min 0,000 mm 0,0 UV-I 0 W/m 1,1 C 1,6 C 19,8 km/h (3 Bft) 0,00 %
09.01.2015 01:30 7,5 C 63 % 1028,7 hPa 0,0 l/m 24,5 km/h (4 Bft) W-SW 252 0 min 0,000 mm 0,0 UV-I 0 W/m 0,9 C -1,4 C 40,0 km/h (6 Bft) 0,00 %
09.01.2015 01:45 7,3 C 63 % 1028,8 hPa 0,0 l/m 18,4 km/h (3 Bft) W-SW 255 0 min 0,000 mm 0,0 UV-I 0 W/m 0,7 C 0,4 C 36,0 km/h (5 Bft) 0,00 %
09.01.2015 02:00 6,6 C 69 % 1029,2 hPa 0,0 l/m 20,9 km/h (4 Bft) W-SW 256 0 min 0,000 mm 0,0 UV-I 0 W/m 1,3 C -1,4 C 24,1 km/h (4 Bft) 0,00 %
09.01.2015 02:15 6,1 C 69 % 1029,9 hPa 0,0 l/m 14,0 km/h (3 Bft) W-SW 252 0 min 0,000 mm 0,0 UV-I 0 W/m 0,8 C 0,9 C 15,8 km/h (3 Bft) 0,00 %
09.01.2015 02:30 6,0 C 69 % 1030,4 hPa 0,0 l/m 9,0 km/h (2 Bft) W-SW 251 0 min 0,000 mm 0,0 UV-I 0 W/m 0,8 C 3,9 C 11,9 km/h (2 Bft) 0,00 %
09.01.2015 02:45 5,7 C 72 % 1030,6 hPa 0,0 l/m 7,9 km/h (2 Bft) W-SW 255 0 min 0,000 mm 0,0 UV-I 0 W/m 1,1 C 4,4 C 11,9 km/h (2 Bft) 0,00 %
09.01.2015 03:00 5,6 C 71 % 1030,9 hPa 0,0 l/m 5,8 km/h (2 Bft) W-SW 252 0 min 0,000 mm 0,0 UV-I 0 W/m 0,8 C 5,6 C 7,9 km/h (2 Bft) 0,00 %
09.01.2015 03:15 5,6 C 70 % 1031,1 hPa 0,0 l/m 9,7 km/h (2 Bft) W 271 0 min 0,000 mm 0,0 UV-I 0 W/m 0,6 C 2,9 C 15,8 km/h (3 Bft) 0,00 %
09.01.2015 03:30 5,4 C 72 % 1030,9 hPa 0,0 l/m 4,7 km/h (1 Bft) W-SW 256 0 min 0,000 mm 0,0 UV-I 0 W/m 0,8 C 5,4 C 7,9 km/h (2 Bft) 0,00 %
09.01.2015 03:45 5,3 C 71 % 1030,9 hPa 0,0 l/m 10,4 km/h (2 Bft) S 177 0 min 0,000 mm 0,0 UV-I 0 W/m 0,5 C 2,1 C 15,8 km/h (3 Bft) 0,00 %
09.01.2015 04:00 5,6 C 70 % 1030,9 hPa 0,0 l/m 11,5 km/h (2 Bft) W-SW 254 0 min 0,000 mm 0,0 UV-I 0 W/m 0,6 C 1,8 C 15,8 km/h (3 Bft) 0,00 %
09.01.2015 04:15 5,3 C 71 % 1030,8 hPa 0,0 l/m 16,9 km/h (3 Bft) W-SW 255 0 min 0,000 mm 0,0 UV-I 0 W/m 0,5 C -1,5 C 19,8 km/h (3 Bft) 0,00 %
09.01.2015 04:30 5,2 C 70 % 1030,6 hPa 0,0 l/m 2,9 km/h (1 Bft) W-SW 251 0 min 0,000 mm 0,0 UV-I 0 W/m 0,2 C 5,2 C 4,0 km/h (1 Bft) 0,00 %
09.01.2015 04:45 5,0 C 69 % 1030,8 hPa 0,0 l/m 4,3 km/h (1 Bft) W-SW 252 0 min 0,000 mm 0,0 UV-I 0 W/m -0,2 C 5,0 C 7,9 km/h (2 Bft) 0,00 %
09.01.2015 05:00 5,0 C 68 % 1030,9 hPa 0,0 l/m 3,2 km/h (1 Bft) W-SW 251 0 min 0,000 mm 0,0 UV-I 0 W/m -0,4 C 5,0 C 4,0 km/h (1 Bft) 0,00 %
09.01.2015 05:15 4,9 C 68 % 1030,9 hPa 0,0 l/m 0,7 km/h (0 Bft) W-SW 251 0 min 0,000 mm 0,0 UV-I 0 W/m -0,5 C 4,9 C 4,0 km/h (1 Bft) 0,00 %
09.01.2015 05:30 4,9 C 67 % 1030,8 hPa 0,0 l/m 1,8 km/h (1 Bft) W 269 0 min 0,000 mm 0,0 UV-I 0 W/m -0,7 C 4,9 C 4,0 km/h (1 Bft) 0,00 %
09.01.2015 05:45 5,0 C 65 % 1030,7 hPa 0,0 l/m 14,4 km/h (3 Bft) NW 325 0 min 0,000 mm 0,0 UV-I 0 W/m -1,0 C -0,6 C 28,1 km/h (4 Bft) 0,00 %
09.01.2015 06:00 5,0 C 66 % 1030,4 hPa 0,0 l/m 1,4 km/h (1 Bft) W-SW 255 0 min 0,000 mm 0,0 UV-I 0 W/m -0,8 C 5,0 C 4,0 km/h (1 Bft) 0,00 %
09.01.2015 06:15 5,1 C 66 % 1030,1 hPa 0,0 l/m 0,4 km/h (0 Bft) N-NW 332 0 min 0,000 mm 0,0 UV-I 0 W/m -0,7 C 5,1 C 4,0 km/h (1 Bft) 0,00 %
09.01.2015 06:30 5,1 C 67 % 1030,2 hPa 0,0 l/m 6,8 km/h (2 Bft) W 278 0 min 0,000 mm 0,0 UV-I 0 W/m -0,5 C 4,8 C 7,9 km/h (2 Bft) 0,00 %
09.01.2015 06:45 5,0 C 69 % 1030,3 hPa 0,0 l/m 0,7 km/h (0 Bft) S 181 0 min 0,000 mm 0,0 UV-I 0 W/m -0,2 C 5,0 C 4,0 km/h (1 Bft) 0,00 %
09.01.2015 07:00 4,9 C 71 % 1029,9 hPa 0,0 l/m 0,4 km/h (0 Bft) NW 320 0 min 0,000 mm 0,0 UV-I 0 W/m 0,1 C 4,9 C 4,0 km/h (1 Bft) 0,00 %
09.01.2015 07:15 4,7 C 72 % 1029,9 hPa 0,0 l/m 2,2 km/h (1 Bft) W-NW 295 0 min 0,000 mm 0,0 UV-I 0 W/m 0,1 C 4,7 C 4,0 km/h (1 Bft) 0,00 %
09.01.2015 07:30 4,7 C 73 % 1029,7 hPa 0,0 l/m 1,8 km/h (1 Bft) W-SW 253 0 min 0,000 mm 0,0 UV-I 0 W/m 0,3 C 4,7 C 4,0 km/h (1 Bft) 0,00 %
09.01.2015 07:45 4,7 C 73 % 1029,5 hPa 0,0 l/m 1,8 km/h (1 Bft) W-SW 256 0 min 0,000 mm 0,0 UV-I 0 W/m 0,3 C 4,7 C 4,0 km/h (1 Bft) 0,00 %
09.01.2015 08:00 4,5 C 74 % 1029,3 hPa 0,0 l/m 0,0 km/h (0 Bft) SW 219 0 min 0,000 mm 0,0 UV-I 0 W/m 0,3 C 4,5 C 0,0 km/h (0 Bft) 0,00 %
09.01.2015 08:15 4,2 C 76 % 1029,1 hPa 0,0 l/m 0,0 km/h (0 Bft) W-SW 255 0 min 0,000 mm 0,0 UV-I 6 W/m 0,4 C 4,2 C 0,0 km/h (0 Bft) 0,00 %
09.01.2015 08:30 4,4 C 75 % 1029,0 hPa 0,0 l/m 2,9 km/h (1 Bft) SW 223 0 min 0,000 mm 0,0 UV-I 23 W/m 0,4 C 4,4 C 4,0 km/h (1 Bft) 0,00 %
09.01.2015 08:45 4,8 C 73 % 1028,9 hPa 0,0 l/m 0,0 km/h (0 Bft) N-NW 337 0 min 0,000 mm 1,0 UV-I 44 W/m 0,4 C 4,8 C 0,0 km/h (0 Bft) 0,00 %
09.01.2015 09:00 5,1 C 73 % 1028,5 hPa 0,0 l/m 2,9 km/h (1 Bft) W-SW 251 15 min 0,000 mm 1,0 UV-I 78 W/m 0,7 C 5,1 C 4,0 km/h (1 Bft) 0,00 %
09.01.2015 09:15 5,2 C 73 % 1028,1 hPa 0,0 l/m 1,4 km/h (1 Bft) SW 221 0 min 0,000 mm 1,0 UV-I 55 W/m 0,8 C 5,2 C 4,0 km/h (1 Bft) 0,00 %
09.01.2015 09:30 5,3 C 72 % 1027,8 hPa 0,0 l/m 0,4 km/h (0 Bft) S 172 0 min 0,000 mm 1,0 UV-I 46 W/m 0,7 C 5,3 C 4,0 km/h (1 Bft) 0,00 %
09.01.2015 09:45 5,5 C 71 % 1027,4 hPa 0,0 l/m 1,4 km/h (1 Bft) S-SW 194 0 min 0,000 mm 1,0 UV-I 62 W/m 0,7 C 5,5 C 4,0 km/h (1 Bft) 0,00 %
09.01.2015 10:00 5,8 C 70 % 1027,2 hPa 0,0 l/m 1,4 km/h (1 Bft) W-SW 251 0 min 0,000 mm 1,0 UV-I 95 W/m 0,8 C 5,8 C 4,0 km/h (1 Bft) 0,00 %
09.01.2015 10:15 5,8 C 70 % 1026,8 hPa 0,0 l/m 0,0 km/h (0 Bft) SO 128 0 min 0,000 mm 1,0 UV-I 83 W/m 0,8 C 5,8 C 0,0 km/h (0 Bft) 0,00 %
09.01.2015 10:30 6,0 C 69 % 1026,1 hPa 0,0 l/m 0,7 km/h (0 Bft) S-SW 200 0 min 0,000 mm 1,0 UV-I 93 W/m 0,8 C 6,0 C 4,0 km/h (1 Bft) 0,00 %
09.01.2015 10:45 6,4 C 66 % 1025,3 hPa 0,0 l/m 0,4 km/h (0 Bft) W-SW 252 0 min 0,000 mm 1,0 UV-I 106 W/m 0,5 C 6,4 C 4,0 km/h (1 Bft) 0,00 %
09.01.2015 11:00 6,7 C 65 % 1024,9 hPa 0,0 l/m 1,8 km/h (1 Bft) W-SW 251 0 min 0,000 mm 1,0 UV-I 116 W/m 0,6 C 6,7 C 4,0 km/h (1 Bft) 0,00 %
09.01.2015 11:15 6,7 C 65 % 1024,7 hPa 0,0 l/m 0,4 km/h (0 Bft) O-NO 68 0 min 0,000 mm 1,0 UV-I 88 W/m 0,6 C 6,7 C 4,0 km/h (1 Bft) 0,00 %
09.01.2015 11:30 6,7 C 65 % 1024,1 hPa 0,0 l/m 5,4 km/h (1 Bft) W-SW 253 0 min 0,000 mm 1,0 UV-I 79 W/m 0,6 C 6,7 C 7,9 km/h (2 Bft) 0,00 %
09.01.2015 11:45 6,9 C 64 % 1023,2 hPa 0,0 l/m 5,4 km/h (1 Bft) W-SW 257 0 min 0,000 mm 1,0 UV-I 91 W/m 0,6 C 6,9 C 7,9 km/h (2 Bft) 0,00 %
09.01.2015 12:00 7,2 C 61 % 1022,5 hPa 0,0 l/m 1,8 km/h (1 Bft) W-NW 290 0 min 0,000 mm 1,0 UV-I 85 W/m 0,2 C 7,2 C 4,0 km/h (1 Bft) 0,00 %
09.01.2015 12:15 7,3 C 60 % 1021,4 hPa 0,0 l/m 1,8 km/h (1 Bft) O-NO 64 0 min 0,000 mm 1,0 UV-I 44 W/m 0,1 C 7,3 C 7,9 km/h (2 Bft) 0,00 %
09.01.2015 12:30 8,2 C 57 % 1021,3 hPa 0,0 l/m 3,2 km/h (1 Bft) W-SW 253 15 min 0,000 mm 1,0 UV-I 192 W/m 0,2 C 8,2 C 4,0 km/h (1 Bft) 0,00 %
09.01.2015 12:45 8,4 C 55 % 1020,7 hPa 0,0 l/m 1,8 km/h (1 Bft) W-SW 250 15 min 0,000 mm 1,0 UV-I 211 W/m -0,1 C 8,4 C 4,0 km/h (1 Bft) 0,00 %
09.01.2015 13:00 8,4 C 53 % 1020,8 hPa 0,0 l/m 16,6 km/h (3 Bft) W-NW 286 15 min 0,000 mm 1,0 UV-I 222 W/m -0,6 C 2,5 C 19,8 km/h (3 Bft) 0,00 %
09.01.2015 13:15 8,7 C 48 % 1019,9 hPa 0,0 l/m 8,3 km/h (2 Bft) W-SW 256 15 min 0,000 mm 1,0 UV-I 211 W/m -1,7 C 7,3 C 11,9 km/h (2 Bft) 0,00 %
09.01.2015 13:30 9,0 C 47 % 1019,1 hPa 0,0 l/m 4,7 km/h (1 Bft) W-SW 253 15 min 0,000 mm 1,0 UV-I 199 W/m -1,7 C 9,0 C 7,9 km/h (2 Bft) 0,00 %
09.01.2015 13:45 9,4 C 45 % 1018,9 hPa 0,0 l/m 0,0 km/h (0 Bft) O 101 0 min 0,000 mm 0,0 UV-I 51 W/m -1,9 C 9,4 C 0,0 km/h (0 Bft) 0,00 %
09.01.2015 14:00 9,3 C 43 % 1019,3 hPa 0,0 l/m 4,0 km/h (1 Bft) W-SW 254 0 min 0,000 mm 1,0 UV-I 30 W/m -2,6 C 9,3 C 7,9 km/h (2 Bft) 0,00 %
09.01.2015 14:15 9,8 C 40 % 1018,6 hPa 0,0 l/m 2,2 km/h (1 Bft) W-NW 283 0 min 0,000 mm 0,0 UV-I 37 W/m -3,1 C 9,8 C 4,0 km/h (1 Bft) 0,00 %
09.01.2015 14:30 10,3 C 35 % 1018,6 hPa 0,0 l/m 14,0 km/h (3 Bft) W-SW 255 0 min 0,000 mm 0,0 UV-I 26 W/m -4,5 C 5,9 C 19,8 km/h (3 Bft) 0,00 %
09.01.2015 14:45 10,2 C 37 % 1019,1 hPa 0,0 l/m 14,0 km/h (3 Bft) W-NW 283 0 min 0,000 mm 0,0 UV-I 51 W/m -3,8 C 5,8 C 19,8 km/h (3 Bft) 0,00 %
09.01.2015 15:00 10,0 C 40 % 1018,4 hPa 0,0 l/m 10,4 km/h (2 Bft) W-SW 255 0 min 0,000 mm 0,0 UV-I 25 W/m -3,0 C 7,4 C 11,9 km/h (2 Bft) 0,00 %
09.01.2015 15:15 10,0 C 40 % 1018,6 hPa 0,0 l/m 5,8 km/h (2 Bft) SW 227 0 min 0,000 mm 0,0 UV-I 11 W/m -3,0 C 10,0 C 11,9 km/h (2 Bft) 0,00 %
09.01.2015 15:30 10,0 C 46 % 1018,7 hPa 0,0 l/m 10,8 km/h (2 Bft) N-NW 343 0 min 0,000 mm 0,0 UV-I 3 W/m -1,1 C 7,1 C 15,8 km/h (3 Bft) 0,00 %
09.01.2015 15:45 9,5 C 52 % 1018,5 hPa 0,0 l/m 4,0 km/h (1 Bft) N-NW 332 0 min 0,000 mm 0,0 UV-I 0 W/m 0,1 C 9,5 C 7,9 km/h (2 Bft) 0,00 %
09.01.2015 16:00 9,4 C 55 % 1018,3 hPa 0,0 l/m 23,0 km/h (4 Bft) W 261 0 min 0,000 mm 0,0 UV-I 0 W/m 0,8 C 1,6 C 28,1 km/h (4 Bft) 0,00 %
09.01.2015 16:15 8,7 C 61 % 1018,4 hPa 0,0 l/m 14,8 km/h (3 Bft) N-NW 342 0 min 0,000 mm 0,0 UV-I 0 W/m 1,6 C 3,6 C 19,8 km/h (3 Bft) 0,00 %
09.01.2015 16:30 8,5 C 59 % 1018,0 hPa 0,0 l/m 4,0 km/h (1 Bft) NO 44 0 min 0,000 mm 0,0 UV-I 0 W/m 1,0 C 8,5 C 7,9 km/h (2 Bft) 0,00 %
09.01.2015 16:45 8,4 C 62 % 1018,2 hPa 0,0 l/m 5,4 km/h (1 Bft) S 178 0 min 0,000 mm 0,0 UV-I 0 W/m 1,6 C 8,4 C 7,9 km/h (2 Bft) 0,00 %
09.01.2015 17:00 7,8 C 64 % 1017,7 hPa 0,0 l/m 4,3 km/h (1 Bft) O-NO 61 0 min 0,000 mm 0,0 UV-I 0 W/m 1,4 C 7,8 C 7,9 km/h (2 Bft) 0,00 %
09.01.2015 17:15 7,7 C 64 % 1017,8 hPa 0,0 l/m 4,7 km/h (1 Bft) O-NO 78 0 min 0,000 mm 0,0 UV-I 0 W/m 1,3 C 7,7 C 7,9 km/h (2 Bft) 0,00 %
09.01.2015 17:30 7,9 C 65 % 1017,5 hPa 0,0 l/m 4,0 km/h (1 Bft) W-SW 256 0 min 0,000 mm 0,0 UV-I 0 W/m 1,7 C 7,9 C 7,9 km/h (2 Bft) 0,00 %
09.01.2015 17:45 7,8 C 64 % 1017,1 hPa 0,0 l/m 3,2 km/h (1 Bft) NW 308 0 min 0,000 mm 0,0 UV-I 0 W/m 1,4 C 7,8 C 7,9 km/h (2 Bft) 0,00 %
09.01.2015 18:00 8,8 C 60 % 1016,8 hPa 0,0 l/m 12,2 km/h (2 Bft) W-SW 255 0 min 0,000 mm 0,0 UV-I 0 W/m 1,5 C 5,0 C 15,8 km/h (3 Bft) 0,00 %
09.01.2015 18:15 9,6 C 59 % 1017,0 hPa 0,0 l/m 9,7 km/h (2 Bft) W-SW 256 0 min 0,000 mm 0,0 UV-I 0 W/m 2,0 C 7,3 C 11,9 km/h (2 Bft) 0,00 %
09.01.2015 18:30 9,6 C 60 % 1017,2 hPa 0,0 l/m 15,5 km/h (3 Bft) W-SW 249 0 min 0,000 mm 0,0 UV-I 0 W/m 2,2 C 4,4 C 28,1 km/h (4 Bft) 0,00 %
09.01.2015 18:45 9,6 C 60 % 1017,1 hPa 0,0 l/m 0,7 km/h (0 Bft) S 176 0 min 0,000 mm 0,0 UV-I 0 W/m 2,2 C 9,6 C 4,0 km/h (1 Bft) 0,00 %
09.01.2015 19:00 9,6 C 60 % 1016,8 hPa 0,0 l/m 19,4 km/h (3 Bft) W 261 0 min 0,000 mm 0,0 UV-I 0 W/m 2,2 C 3,0 C 28,1 km/h (4 Bft) 0,00 %
09.01.2015 19:15 9,6 C 61 % 1017,0 hPa 0,0 l/m 34,2 km/h (5 Bft) W-SW 253 0 min 0,000 mm 0,0 UV-I 0 W/m 2,5 C -0,7 C 40,0 km/h (6 Bft) 0,00 %
09.01.2015 19:30 9,6 C 61 % 1017,6 hPa 0,0 l/m 9,7 km/h (2 Bft) N-NW 331 0 min 0,000 mm 0,0 UV-I 0 W/m 2,5 C 7,3 C 11,9 km/h (2 Bft) 0,00 %
09.01.2015 19:45 9,1 C 67 % 1017,6 hPa 0,0 l/m 14,4 km/h (3 Bft) W 263 0 min 0,000 mm 0,0 UV-I 0 W/m 3,3 C 4,3 C 24,1 km/h (4 Bft) 0,00 %
09.01.2015 20:00 8,8 C 67 % 1017,5 hPa 0,0 l/m 14,0 km/h (3 Bft) W-SW 255 0 min 0,000 mm 0,0 UV-I 0 W/m 3,0 C 4,1 C 19,8 km/h (3 Bft) 0,00 %
09.01.2015 20:15 8,8 C 67 % 1017,0 hPa 0,0 l/m 6,8 km/h (2 Bft) S 188 0 min 0,000 mm 0,0 UV-I 0 W/m 3,0 C 8,5 C 11,9 km/h (2 Bft) 0,00 %
09.01.2015 20:30 9,1 C 65 % 1016,9 hPa 0,0 l/m 9,4 km/h (2 Bft) W-SW 256 0 min 0,000 mm 0,0 UV-I 0 W/m 2,9 C 7,0 C 11,9 km/h (2 Bft) 0,00 %
09.01.2015 20:45 9,4 C 64 % 1016,4 hPa 0,0 l/m 4,0 km/h (1 Bft) W-SW 255 0 min 0,000 mm 0,0 UV-I 0 W/m 2,9 C 9,4 C 7,9 km/h (2 Bft) 0,00 %
09.01.2015 21:00 9,3 C 63 % 1015,9 hPa 0,0 l/m 11,9 km/h (2 Bft) W-SW 251 0 min 0,000 mm 0,0 UV-I 0 W/m 2,6 C 5,8 C 15,8 km/h (3 Bft) 0,00 %
09.01.2015 21:15 9,4 C 65 % 1016,1 hPa 0,0 l/m 16,9 km/h (3 Bft) W-NW 297 0 min 0,000 mm 0,0 UV-I 0 W/m 3,2 C 3,6 C 24,1 km/h (4 Bft) 0,00 %
09.01.2015 21:30 8,6 C 70 % 1016,5 hPa 0,0 l/m 18,4 km/h (3 Bft) W-SW 252 0 min 0,000 mm 0,0 UV-I 0 W/m 3,4 C 2,1 C 24,1 km/h (4 Bft) 0,00 %
09.01.2015 21:45 7,6 C 76 % 1016,0 hPa 0,3 l/m 1,8 km/h (1 Bft) W-SW 256 0 min 0,000 mm 0,0 UV-I 0 W/m 3,6 C 7,6 C 7,9 km/h (2 Bft) 0,00 %
09.01.2015 22:00 7,4 C 80 % 1016,2 hPa 0,3 l/m 14,4 km/h (3 Bft) W-SW 251 0 min 0,000 mm 0,0 UV-I 0 W/m 4,2 C 2,3 C 15,8 km/h (3 Bft) 0,00 %
09.01.2015 22:15 7,5 C 81 % 1015,8 hPa 0,6 l/m 3,2 km/h (1 Bft) S-SW 201 0 min 0,000 mm 0,0 UV-I 0 W/m 4,5 C 7,5 C 7,9 km/h (2 Bft) 0,00 %
09.01.2015 22:30 7,8 C 80 % 1015,0 hPa 0,3 l/m 14,4 km/h (3 Bft) W-SW 255 0 min 0,000 mm 0,0 UV-I 0 W/m 4,6 C 2,7 C 19,8 km/h (3 Bft) 0,00 %
09.01.2015 22:45 8,0 C 79 % 1015,0 hPa 0,3 l/m 18,4 km/h (3 Bft) NW 312 0 min 0,000 mm 0,0 UV-I 0 W/m 4,6 C 1,3 C 24,1 km/h (4 Bft) 0,00 %
09.01.2015 23:00 8,2 C 76 % 1015,1 hPa 0,0 l/m 15,8 km/h (3 Bft) SW 220 0 min 0,000 mm 0,0 UV-I 0 W/m 4,2 C 2,6 C 19,8 km/h (3 Bft) 0,00 %
09.01.2015 23:15 8,3 C 77 % 1014,9 hPa 0,0 l/m 14,8 km/h (3 Bft) W-SW 256 0 min 0,000 mm 0,0 UV-I 0 W/m 4,5 C 3,2 C 19,8 km/h (3 Bft) 0,00 %
09.01.2015 23:30 8,3 C 77 % 1015,0 hPa 0,3 l/m 14,4 km/h (3 Bft) NW 304 0 min 0,000 mm 0,0 UV-I 0 W/m 4,5 C 3,4 C 24,1 km/h (4 Bft) 0,00 %
09.01.2015 23:45 8,6 C 74 % 1014,9 hPa 0,0 l/m 16,6 km/h (3 Bft) W-SW 256 0 min 0,000 mm 0,0 UV-I 0 W/m 4,2 C 2,8 C 28,1 km/h (4 Bft) 0,00 %
_ Min-Zeit 08:15 14:30 23:15 - 08:00 - - - - - - 14:30 00:15 08:00 00:00
Minimum _ 4,2 C 35 % 1014,9 hPa - 0,0 km/h (0 Bft) - - - - - - -4,5 C -4,3 C 0,0 km/h (0 Bft) 0,00 %
_ Max-Zeit 14:30 22:15 03:15 22:15 19:15 - - 09:00 00:00 08:45 13:00 22:45 15:15 00:15 00:00
Maximum _ 10,3 C 81 % 1031,1 hPa 0,6 l/m 34,2 km/h
W-SW (5 Bft)
- - 15 min 0,000 mm 1,0 UV-I 222 W/m 4,6 C 10,0 C 40,0 km/h
W-SW (6 Bft)
0,00 %
Durchschnitt _ 7,3 C 65 % 1023,2 hPa #2,1 l/m 8,2 km/h (2 Bft) W-SW - #1:30 h #0,000 mm 1,0 UV-I 82 W/m 0,9 C 5,0 C 12,5 km/h (3 Bft) 0,00 %